Fort Liard, Canada
Current Conditions -  °F | °C
As of 10:00 PM on Monday 20 Oct 2014 (Local Time) from CYYE Reporting Station
Moderate Fog Moderate Fog  
Wind Chill: 32°   Ceiling: 200
Heat Index: 32°   Visibility: 0.25mi
Dew Point: 32°   Wind: 2mph
Humidity: 100%   Direction: NA
Pressure: 29.39"   Gusts: NA
Location:  60.23°N, 123.48°W
Report Text: CYYE 210400Z VRB02KT 1/4SM FG OVC002 00/00 A2939 RMK FG7ST1 SLP971
Loading
Personal Weather Stations






























Interactive Weather Map New forecast layout! Learn more

10-Day Weather Forecast

Advertisements
Track Severe Weather on mobile